createdAt,value
2018-07-24T00:00:33.482Z,22.40
2018-07-24T00:03:02.926Z,22.40
2018-07-24T00:05:34.869Z,22.30
2018-07-24T00:08:05.078Z,22.30
2018-07-24T00:10:35.470Z,22.30
2018-07-24T00:13:04.983Z,22.30
2018-07-24T00:15:38.987Z,22.20
2018-07-24T00:18:08.299Z,22.20
2018-07-24T00:20:41.927Z,22.20
2018-07-24T00:23:11.467Z,22.10
2018-07-24T00:25:43.993Z,22.10
2018-07-24T00:28:13.832Z,22.10
2018-07-24T00:30:47.082Z,22.00
2018-07-24T00:33:17.902Z,22.00
2018-07-24T00:35:49.020Z,22.00
2018-07-24T00:38:18.859Z,22.00
2018-07-24T00:40:52.010Z,22.00
2018-07-24T00:43:21.428Z,22.00
2018-07-24T00:45:59.018Z,22.00
2018-07-24T00:48:28.421Z,22.00
2018-07-24T00:50:58.534Z,22.00
2018-07-24T00:53:28.468Z,21.90
2018-07-24T00:56:01.033Z,22.00
2018-07-24T00:58:30.265Z,22.00
2018-07-24T01:01:07.005Z,21.90
2018-07-24T01:03:36.037Z,21.90
2018-07-24T01:06:07.093Z,21.90
2018-07-24T01:08:36.977Z,21.90
2018-07-24T01:11:11.298Z,21.90
2018-07-24T01:13:40.610Z,21.90
2018-07-24T01:16:14.166Z,21.80
2018-07-24T01:18:43.490Z,21.80
2018-07-24T01:21:16.244Z,21.80
2018-07-24T01:23:47.547Z,21.80
2018-07-24T01:26:18.117Z,21.70
2018-07-24T01:28:47.605Z,21.70
2018-07-24T01:31:21.161Z,21.70
2018-07-24T01:33:50.457Z,21.70
2018-07-24T01:36:22.696Z,21.70
2018-07-24T01:38:52.124Z,21.60
2018-07-24T01:41:24.662Z,21.60
2018-07-24T01:43:54.721Z,21.60
2018-07-24T01:46:32.050Z,21.60
2018-07-24T01:49:01.190Z,21.50
2018-07-24T01:51:31.283Z,21.60
2018-07-24T01:54:01.307Z,21.60
2018-07-24T01:56:32.522Z,21.60
2018-07-24T01:59:02.060Z,21.60
2018-07-24T02:01:35.157Z,21.50
2018-07-24T02:04:04.158Z,21.50
2018-07-24T02:06:41.201Z,21.50
2018-07-24T02:09:11.683Z,21.50
2018-07-24T02:11:41.358Z,21.50
2018-07-24T02:14:10.337Z,21.50
2018-07-24T02:16:42.680Z,21.40
2018-07-24T02:19:11.822Z,21.40
2018-07-24T02:21:48.787Z,21.40
2018-07-24T02:24:18.268Z,21.40
2018-07-24T02:26:48.177Z,21.30
2018-07-24T02:29:17.231Z,21.30
2018-07-24T02:31:54.245Z,21.30
2018-07-24T02:34:23.803Z,21.30
2018-07-24T02:36:56.766Z,21.20
2018-07-24T02:39:26.301Z,21.20
2018-07-24T02:42:02.265Z,21.20
2018-07-24T02:44:32.209Z,21.20
2018-07-24T02:47:02.687Z,21.20
2018-07-24T02:49:32.305Z,21.20
2018-07-24T02:52:05.578Z,21.20
2018-07-24T02:54:35.271Z,21.20
2018-07-24T02:57:08.328Z,21.20
2018-07-24T02:59:37.893Z,21.20
2018-07-24T03:02:10.274Z,21.20
2018-07-24T03:04:39.775Z,21.20
2018-07-24T03:07:14.377Z,21.10
2018-07-24T03:09:43.930Z,21.10
2018-07-24T03:12:16.941Z,21.10
2018-07-24T03:14:46.735Z,21.20
2018-07-24T03:17:20.248Z,21.20
2018-07-24T03:19:49.411Z,21.10
2018-07-24T03:22:21.849Z,21.10
2018-07-24T03:24:51.348Z,21.10
2018-07-24T03:27:24.304Z,21.10
2018-07-24T03:29:54.936Z,21.10
2018-07-24T03:32:28.385Z,21.10
2018-07-24T03:34:58.625Z,21.10
2018-07-24T03:39:57.299Z,21.10
2018-07-24T03:42:31.177Z,21.00
2018-07-24T03:45:00.544Z,21.00
2018-07-24T03:47:33.507Z,21.00
2018-07-24T03:50:02.988Z,21.00
2018-07-24T03:52:36.408Z,21.00
2018-07-24T03:55:06.526Z,20.90
2018-07-24T04:00:09.229Z,20.90
2018-07-24T04:02:41.528Z,20.90
2018-07-24T04:05:11.447Z,20.90
2018-07-24T04:07:47.528Z,20.80
2018-07-24T04:10:17.030Z,20.80
2018-07-24T04:12:47.522Z,20.80
2018-07-24T04:15:17.570Z,20.80
2018-07-24T04:17:51.107Z,20.80
2018-07-24T04:20:20.700Z,20.80
2018-07-24T04:22:52.498Z,20.80
2018-07-24T04:25:22.105Z,20.70
2018-07-24T04:27:55.681Z,20.70
2018-07-24T04:30:25.091Z,20.70
2018-07-24T04:32:58.048Z,20.70
2018-07-24T04:35:27.700Z,20.70
2018-07-24T04:38:00.034Z,20.70
2018-07-24T04:40:29.558Z,20.70
2018-07-24T04:43:06.739Z,20.70
2018-07-24T04:45:35.902Z,20.70
2018-07-24T04:48:08.192Z,20.80
2018-07-24T04:50:38.151Z,20.70
2018-07-24T04:53:10.681Z,20.80
2018-07-24T04:55:39.974Z,20.80
2018-07-24T04:58:17.662Z,20.80
2018-07-24T05:00:47.605Z,20.80
2018-07-24T05:03:16.774Z,20.80
2018-07-24T05:05:46.129Z,20.90
2018-07-24T05:08:18.924Z,20.90
2018-07-24T05:10:48.242Z,21.00
2018-07-24T05:13:21.097Z,21.00
2018-07-24T05:15:50.839Z,21.00
2018-07-24T05:18:21.850Z,21.00
2018-07-24T05:20:51.462Z,21.10
2018-07-24T05:23:24.252Z,21.10
2018-07-24T05:25:55.406Z,21.10
2018-07-24T05:28:26.793Z,21.20
2018-07-24T05:30:57.430Z,21.20
2018-07-24T05:33:30.779Z,21.30
2018-07-24T05:38:35.703Z,21.30
2018-07-24T05:41:04.841Z,21.40
2018-07-24T05:43:36.132Z,21.40
2018-07-24T05:46:05.722Z,21.50
2018-07-24T05:51:07.789Z,21.50
2018-07-24T05:53:38.937Z,21.60
2018-07-24T05:56:09.038Z,21.60
2018-07-24T05:58:42.851Z,21.70
2018-07-24T06:01:12.506Z,21.80
2018-07-24T06:03:44.398Z,21.90
2018-07-24T06:06:15.625Z,21.90
2018-07-24T06:08:49.201Z,22.00
2018-07-24T06:11:19.691Z,22.00
2018-07-24T06:13:50.244Z,22.10
2018-07-24T06:16:22.069Z,22.20
2018-07-24T06:18:54.225Z,22.30
2018-07-24T06:21:26.707Z,22.30
2018-07-24T06:23:57.063Z,22.40
2018-07-24T06:26:28.261Z,22.40
2018-07-24T06:28:59.451Z,22.50
2018-07-24T06:34:02.415Z,22.70
2018-07-24T06:36:32.055Z,22.80
2018-07-24T06:39:09.568Z,22.90
2018-07-24T06:41:39.144Z,22.90
2018-07-24T06:44:11.152Z,23.10
2018-07-24T06:46:41.163Z,23.10
2018-07-24T06:49:11.564Z,23.20
2018-07-24T06:51:41.358Z,23.20
2018-07-24T06:54:20.315Z,23.30
2018-07-24T06:56:50.263Z,23.40
2018-07-24T06:59:20.747Z,23.50
2018-07-24T07:01:51.006Z,23.50
2018-07-24T07:04:23.229Z,23.60
2018-07-24T07:06:56.759Z,23.70
2018-07-24T07:09:28.235Z,23.80
2018-07-24T07:11:58.656Z,23.80
2018-07-24T07:14:29.185Z,23.90
2018-07-24T07:17:02.310Z,24.00
2018-07-24T07:19:32.712Z,24.00
2018-07-24T07:22:04.360Z,24.10
2018-07-24T07:24:35.633Z,24.10
2018-07-24T07:27:05.251Z,24.20
2018-07-24T07:29:36.816Z,24.30
2018-07-24T07:32:07.221Z,24.30
2018-07-24T07:34:39.716Z,24.40
2018-07-24T07:37:09.240Z,24.40
2018-07-24T07:39:39.412Z,24.50
2018-07-24T07:42:09.675Z,24.60
2018-07-24T07:47:10.400Z,24.70
2018-07-24T07:49:47.372Z,24.80
2018-07-24T07:52:22.587Z,24.90
2018-07-24T07:54:53.360Z,24.90
2018-07-24T07:57:22.651Z,25.00
2018-07-24T07:59:54.416Z,25.00
2018-07-24T08:02:24.372Z,25.10
2018-07-24T08:04:55.528Z,25.20
2018-07-24T08:07:26.389Z,25.20
2018-07-24T08:09:58.331Z,25.30
2018-07-24T08:12:29.624Z,25.40
2018-07-24T08:14:59.246Z,25.40
2018-07-24T08:17:30.535Z,25.50
2018-07-24T08:20:02.080Z,25.60
2018-07-24T08:22:32.431Z,25.70
2018-07-24T08:25:06.368Z,25.80
2018-07-24T08:27:36.497Z,25.90
2018-07-24T08:30:12.566Z,26.00
2018-07-24T08:32:43.015Z,26.10
2018-07-24T08:35:13.386Z,26.10
2018-07-24T08:37:43.624Z,26.30
2018-07-24T08:40:21.148Z,26.50
2018-07-24T08:42:52.892Z,26.50
2018-07-24T08:45:23.274Z,26.60
2018-07-24T08:47:56.223Z,26.60
2018-07-24T08:50:27.645Z,26.60
2018-07-24T08:52:58.574Z,26.60
2018-07-24T08:55:30.482Z,26.80
2018-07-24T08:58:00.244Z,26.90
2018-07-24T09:00:31.505Z,26.90
2018-07-24T09:03:02.972Z,26.90
2018-07-24T09:05:33.618Z,26.90
2018-07-24T09:08:03.194Z,27.10
2018-07-24T09:10:32.748Z,27.20
2018-07-24T09:13:03.356Z,27.40
2018-07-24T09:15:36.723Z,27.80
2018-07-24T09:18:08.835Z,27.90
2018-07-24T09:20:42.179Z,28.20
2018-07-24T09:23:12.685Z,28.30
2018-07-24T09:25:43.176Z,28.50
2018-07-24T09:28:13.960Z,28.70
2018-07-24T09:30:45.115Z,28.80
2018-07-24T09:33:15.744Z,28.80
2018-07-24T09:35:45.674Z,28.90
2018-07-24T09:38:18.983Z,29.10
2018-07-24T09:40:49.426Z,29.20
2018-07-24T09:43:20.311Z,29.40
2018-07-24T09:45:51.854Z,29.60
2018-07-24T09:48:22.674Z,29.80
2018-07-24T09:50:52.932Z,29.80
2018-07-24T09:53:24.633Z,29.80
2018-07-24T09:55:56.660Z,29.80
2018-07-24T09:58:28.295Z,30.10
2018-07-24T10:01:03.641Z,30.30
2018-07-24T10:06:01.197Z,30.50
2018-07-24T10:08:32.397Z,31.20
2018-07-24T10:13:42.791Z,31.50
2018-07-24T10:16:13.745Z,31.90
2018-07-24T10:18:44.303Z,32.20
2018-07-24T10:21:13.966Z,32.30
2018-07-24T10:23:44.813Z,32.50
2018-07-24T10:28:48.899Z,32.80
2018-07-24T10:31:19.526Z,33.00
2018-07-24T10:33:49.673Z,33.20
2018-07-24T10:36:19.654Z,33.30
2018-07-24T10:38:49.797Z,33.00
2018-07-24T10:41:19.792Z,32.90
2018-07-24T10:43:49.213Z,32.60
2018-07-24T10:46:23.462Z,32.20
2018-07-24T10:48:57.992Z,31.80
2018-07-24T10:51:29.080Z,31.50
2018-07-24T10:53:59.841Z,31.30
2018-07-24T10:56:30.209Z,31.20
2018-07-24T10:59:01.500Z,31.10
2018-07-24T11:01:34.783Z,30.90
2018-07-24T11:04:06.604Z,30.80
2018-07-24T11:06:36.397Z,30.70
2018-07-24T11:09:09.772Z,30.50
2018-07-24T11:11:39.649Z,30.40
2018-07-24T11:14:09.837Z,30.30
2018-07-24T11:16:41.662Z,30.20
2018-07-24T11:19:11.265Z,30.10
2018-07-24T11:21:43.667Z,30.10
2018-07-24T11:24:14.612Z,30.10
2018-07-24T11:29:22.493Z,30.20
2018-07-24T11:31:55.166Z,30.70
2018-07-24T11:34:26.069Z,30.90
2018-07-24T11:36:56.316Z,31.20
2018-07-24T11:39:27.092Z,31.30
2018-07-24T11:41:59.092Z,31.30
2018-07-24T11:44:29.189Z,31.20
2018-07-24T11:47:00.701Z,31.20
2018-07-24T11:49:31.211Z,30.80
2018-07-24T11:52:02.399Z,30.80
2018-07-24T11:54:33.168Z,30.80
2018-07-24T11:57:04.162Z,30.90
2018-07-24T11:59:35.326Z,31.00
2018-07-24T12:02:08.285Z,31.20
2018-07-24T12:04:38.579Z,31.40
2018-07-24T12:07:10.758Z,31.60
2018-07-24T12:09:43.167Z,31.70
2018-07-24T12:12:18.729Z,31.70
2018-07-24T12:15:13.150Z,31.60
2018-07-24T12:17:46.692Z,31.50
2018-07-24T12:20:23.431Z,31.50
2018-07-24T12:30:44.065Z,31.90
2018-07-24T12:33:21.318Z,32.10
2018-07-24T12:35:51.437Z,32.30
2018-07-24T12:38:22.099Z,32.40
2018-07-24T12:40:55.347Z,32.70
2018-07-24T12:43:25.175Z,33.00
2018-07-24T12:45:55.927Z,33.20
2018-07-24T12:48:27.026Z,33.30
2018-07-24T12:51:00.957Z,33.20
2018-07-24T12:53:31.281Z,33.30
2018-07-24T12:56:01.160Z,33.30
2018-07-24T12:58:33.176Z,33.30
2018-07-24T13:01:04.088Z,33.50
2018-07-24T13:03:35.705Z,33.70
2018-07-24T13:06:06.479Z,33.90
2018-07-24T13:08:38.385Z,34.00
2018-07-24T13:11:15.169Z,34.10
2018-07-24T13:13:45.584Z,34.20
2018-07-24T13:16:20.551Z,34.30
2018-07-24T13:18:51.189Z,34.40
2018-07-24T13:21:21.601Z,34.20
2018-07-24T13:23:55.359Z,34.00
2018-07-24T13:26:27.023Z,33.70
2018-07-24T13:28:58.449Z,33.60
2018-07-24T13:31:30.259Z,33.30
2018-07-24T13:34:01.077Z,33.00
2018-07-24T13:36:32.642Z,32.70
2018-07-24T13:39:04.777Z,32.50
2018-07-24T13:41:38.434Z,32.60
2018-07-24T13:44:09.243Z,32.40
2018-07-24T13:49:59.401Z,32.10
2018-07-24T13:52:30.487Z,31.80
2018-07-24T13:55:01.591Z,31.60
2018-07-24T13:57:32.533Z,31.60
2018-07-24T14:00:04.172Z,31.60
2018-07-24T14:02:37.591Z,31.50
2018-07-24T14:05:08.337Z,31.40
2018-07-24T14:07:37.647Z,31.30
2018-07-24T14:10:08.275Z,31.30
2018-07-24T14:12:40.531Z,31.50
2018-07-24T14:15:12.451Z,31.60
2018-07-24T14:17:42.643Z,31.80
2018-07-24T14:20:19.166Z,32.10
2018-07-24T14:22:50.356Z,32.20
2018-07-24T14:25:21.079Z,32.30
2018-07-24T14:27:52.918Z,32.40
2018-07-24T14:30:23.066Z,32.50
2018-07-24T14:32:57.752Z,32.40
2018-07-24T14:35:28.634Z,32.40
2018-07-24T14:37:59.447Z,32.50
2018-07-24T14:40:31.522Z,32.50
2018-07-24T14:43:03.729Z,32.50
2018-07-24T14:45:33.221Z,32.50
2018-07-24T14:48:03.176Z,32.50
2018-07-24T14:50:37.156Z,32.70
2018-07-24T14:53:11.468Z,32.70
2018-07-24T14:55:46.559Z,32.80
2018-07-24T14:58:17.630Z,32.90
2018-07-24T15:00:49.186Z,32.70
2018-07-24T15:03:22.292Z,32.60
2018-07-24T15:05:52.676Z,32.60
2018-07-24T15:08:23.514Z,32.60
2018-07-24T15:13:42.423Z,32.60
2018-07-24T15:16:13.614Z,32.60
2018-07-24T15:18:45.216Z,32.70
2018-07-24T15:21:15.977Z,32.80
2018-07-24T15:23:51.015Z,32.80
2018-07-24T15:26:22.603Z,32.80
2018-07-24T15:28:54.738Z,32.70
2018-07-24T15:31:26.733Z,32.50
2018-07-24T15:34:01.156Z,32.40
2018-07-24T15:36:32.560Z,32.40
2018-07-24T15:39:03.379Z,32.40
2018-07-24T15:41:33.774Z,32.50
2018-07-24T15:44:04.833Z,32.60
2018-07-24T15:46:37.540Z,32.60
2018-07-24T15:49:13.082Z,32.30
2018-07-24T15:51:44.577Z,32.40
2018-07-24T15:54:15.582Z,32.40
2018-07-24T15:56:46.832Z,32.40
2018-07-24T15:59:19.551Z,32.40
2018-07-24T16:01:48.962Z,32.50
2018-07-24T16:04:18.949Z,32.50
2018-07-24T16:09:27.032Z,32.50
2018-07-24T16:12:01.080Z,32.50
2018-07-24T16:14:33.210Z,32.40
2018-07-24T16:17:04.278Z,32.20
2018-07-24T16:19:34.640Z,32.00
2018-07-24T16:22:06.028Z,31.80
2018-07-24T16:24:36.082Z,31.70
2018-07-24T16:27:21.768Z,31.60
2018-07-24T16:29:52.210Z,31.50
2018-07-24T16:32:29.245Z,31.40
2018-07-24T16:34:58.994Z,31.30
2018-07-24T16:37:34.997Z,31.20
2018-07-24T16:40:05.097Z,31.10
2018-07-24T16:42:36.815Z,31.00
2018-07-24T16:45:09.689Z,31.00
2018-07-24T16:47:40.737Z,30.90
2018-07-24T16:50:12.090Z,30.80
2018-07-24T16:55:43.094Z,30.70
2018-07-24T16:58:20.757Z,30.60
2018-07-24T17:00:53.428Z,30.50
2018-07-24T17:03:23.681Z,30.40
2018-07-24T17:05:55.882Z,30.40
2018-07-24T17:08:25.792Z,30.30
2018-07-24T17:10:55.592Z,30.30
2018-07-24T17:13:25.562Z,30.20
2018-07-24T17:15:57.079Z,30.20
2018-07-24T17:18:31.507Z,30.10
2018-07-24T17:21:05.473Z,30.10
2018-07-24T17:23:36.627Z,30.10
2018-07-24T17:26:07.740Z,30.10
2018-07-24T17:28:38.146Z,30.10
2018-07-24T17:31:12.697Z,30.10
2018-07-24T17:33:43.707Z,30.10
2018-07-24T17:36:14.105Z,30.10
2018-07-24T17:38:45.547Z,30.10
2018-07-24T17:41:17.077Z,30.10
2018-07-24T17:43:47.133Z,30.00
2018-07-24T17:46:17.231Z,30.00
2018-07-24T17:48:49.165Z,29.90
2018-07-24T17:51:20.178Z,29.90
2018-07-24T17:53:52.193Z,29.80
2018-07-24T17:56:28.938Z,29.80
2018-07-24T17:58:59.124Z,29.80
2018-07-24T18:01:31.171Z,29.70
2018-07-24T18:04:01.220Z,29.70
2018-07-24T18:06:34.300Z,29.70
2018-07-24T18:09:20.086Z,29.60
2018-07-24T18:11:56.904Z,29.60
2018-07-24T18:14:28.940Z,29.50
2018-07-24T18:16:59.255Z,29.50
2018-07-24T18:19:31.798Z,29.50
2018-07-24T18:22:02.431Z,29.50
2018-07-24T18:24:38.400Z,29.40
2018-07-24T18:27:09.242Z,29.40
2018-07-24T18:29:41.524Z,29.40
2018-07-24T18:32:12.401Z,29.30
2018-07-24T18:34:42.199Z,29.20
2018-07-24T18:37:19.086Z,29.10
2018-07-24T18:43:08.296Z,29.00
2018-07-24T18:45:38.613Z,29.00
2018-07-24T18:48:09.756Z,28.90
2018-07-24T18:50:40.525Z,28.90
2018-07-24T18:53:13.279Z,28.90
2018-07-24T18:55:45.079Z,28.80
2018-07-24T18:58:19.662Z,28.70
2018-07-24T19:00:54.010Z,28.60
2018-07-24T19:03:26.145Z,28.60
2018-07-24T19:05:57.703Z,28.50
2018-07-24T19:13:39.335Z,28.40
2018-07-24T19:16:12.075Z,28.30
2018-07-24T19:21:20.682Z,28.10
2018-07-24T19:24:01.635Z,28.10
2018-07-24T19:31:35.807Z,27.90
2018-07-24T19:34:06.655Z,27.80
2018-07-24T19:36:35.672Z,27.70
2018-07-24T19:39:12.543Z,27.60
2018-07-24T19:41:43.628Z,27.60
2018-07-24T19:46:54.321Z,27.40
2018-07-24T19:49:35.514Z,27.40
2018-07-24T19:52:13.299Z,27.30
2018-07-24T19:54:43.219Z,27.30
2018-07-24T19:57:22.180Z,27.20
2018-07-24T19:59:51.705Z,27.20
2018-07-24T20:02:23.526Z,27.20
2018-07-24T20:04:54.382Z,27.10
2018-07-24T20:07:25.756Z,27.00
2018-07-24T20:10:05.038Z,27.00
2018-07-24T20:12:35.265Z,26.90
2018-07-24T20:15:05.625Z,26.90
2018-07-24T20:17:35.340Z,26.90
2018-07-24T20:20:10.786Z,26.80
2018-07-24T20:22:41.208Z,26.80
2018-07-24T21:11:06.370Z,26.20
2018-07-24T21:13:36.533Z,26.20
2018-07-24T21:16:09.442Z,26.20
2018-07-24T21:18:40.422Z,26.10
2018-07-24T21:26:16.575Z,26.00
2018-07-24T21:28:46.184Z,26.00
2018-07-24T21:31:16.508Z,25.90
2018-07-24T21:33:48.413Z,25.90
2018-07-24T21:36:22.176Z,25.80
2018-07-24T21:38:52.551Z,25.80
2018-07-24T21:41:22.635Z,25.80
2018-07-24T21:43:54.745Z,25.70
2018-07-24T21:46:25.433Z,25.70
2018-07-24T21:48:56.492Z,25.70
2018-07-24T21:51:28.563Z,25.70
2018-07-24T21:54:00.807Z,25.60
2018-07-24T21:56:34.592Z,25.60
2018-07-24T21:59:03.725Z,25.60
2018-07-24T22:01:33.308Z,25.60
2018-07-24T22:04:02.773Z,25.50
2018-07-24T22:06:32.404Z,25.50
2018-07-24T22:09:01.393Z,25.40
2018-07-24T22:11:31.514Z,25.50
2018-07-24T22:14:02.054Z,25.50
2018-07-24T22:16:31.238Z,25.50
2018-07-24T22:19:01.078Z,25.40
2018-07-24T22:24:01.681Z,25.50
2018-07-24T22:26:38.152Z,25.40
2018-07-24T22:29:08.032Z,25.40
2018-07-24T22:31:36.838Z,25.40
2018-07-24T22:34:06.166Z,25.40
2018-07-24T22:36:42.614Z,25.40
2018-07-24T22:39:12.287Z,25.30
2018-07-24T22:41:41.646Z,25.30
2018-07-24T22:44:13.364Z,25.30
2018-07-24T22:46:45.152Z,25.20
2018-07-24T22:49:14.173Z,25.20
2018-07-24T22:51:50.574Z,25.20
2018-07-24T22:54:20.161Z,25.20
2018-07-24T22:56:50.966Z,25.20
2018-07-24T22:59:20.568Z,25.20
2018-07-24T23:01:51.895Z,25.10
2018-07-24T23:04:21.141Z,25.00
2018-07-24T23:06:57.580Z,24.90
2018-07-24T23:09:27.202Z,24.90
2018-07-24T23:11:58.287Z,24.90
2018-07-24T23:14:27.551Z,24.80
2018-07-24T23:17:06.330Z,24.70
2018-07-24T23:19:36.406Z,24.70
2018-07-24T23:22:05.168Z,24.70
2018-07-24T23:24:34.021Z,24.70
2018-07-24T23:27:05.795Z,24.60
2018-07-24T23:29:34.589Z,24.60
2018-07-24T23:32:11.094Z,24.50
2018-07-24T23:34:40.545Z,24.50
2018-07-24T23:37:12.942Z,24.40
2018-07-24T23:39:41.896Z,24.40
2018-07-24T23:42:16.506Z,24.30
2018-07-24T23:44:45.412Z,24.30
2018-07-24T23:47:16.760Z,24.30
2018-07-24T23:49:45.505Z,24.20
2018-07-24T23:52:21.416Z,24.20
2018-07-24T23:54:50.601Z,24.20
2018-07-24T23:57:22.966Z,24.20
2018-07-24T23:59:51.922Z,24.10
